sensor_id;sensor_type;location;lat;lon;timestamp;temperature;humidity
4097;DHT22;2062;50.694;7.246;2024-02-14T00:00:03;8.30;57.60
4097;DHT22;2062;50.694;7.246;2024-02-14T00:02:30;8.30;57.70
4097;DHT22;2062;50.694;7.246;2024-02-14T00:04:57;8.30;57.60
4097;DHT22;2062;50.694;7.246;2024-02-14T00:07:23;8.30;57.60
4097;DHT22;2062;50.694;7.246;2024-02-14T00:09:53;8.30;57.50
4097;DHT22;2062;50.694;7.246;2024-02-14T00:12:20;8.20;57.50
4097;DHT22;2062;50.694;7.246;2024-02-14T00:14:48;8.30;57.60
4097;DHT22;2062;50.694;7.246;2024-02-14T00:17:15;8.30;57.60
4097;DHT22;2062;50.694;7.246;2024-02-14T00:19:42;8.30;57.60
4097;DHT22;2062;50.694;7.246;2024-02-14T00:22:09;8.30;57.60
4097;DHT22;2062;50.694;7.246;2024-02-14T00:24:35;8.30;57.70
4097;DHT22;2062;50.694;7.246;2024-02-14T00:27:04;8.30;57.80
4097;DHT22;2062;50.694;7.246;2024-02-14T00:29:31;8.30;57.70
4097;DHT22;2062;50.694;7.246;2024-02-14T00:31:59;8.30;57.80
4097;DHT22;2062;50.694;7.246;2024-02-14T00:34:26;8.30;57.80
4097;DHT22;2062;50.694;7.246;2024-02-14T00:36:53;8.30;57.80
4097;DHT22;2062;50.694;7.246;2024-02-14T00:39:20;8.30;57.80
4097;DHT22;2062;50.694;7.246;2024-02-14T00:41:47;8.30;57.80
4097;DHT22;2062;50.694;7.246;2024-02-14T00:44:15;8.30;57.70
4097;DHT22;2062;50.694;7.246;2024-02-14T00:46:44;8.30;57.80
4097;DHT22;2062;50.694;7.246;2024-02-14T00:49:11;8.30;57.80
4097;DHT22;2062;50.694;7.246;2024-02-14T00:51:39;8.30;57.90
4097;DHT22;2062;50.694;7.246;2024-02-14T00:54:06;8.40;57.90
4097;DHT22;2062;50.694;7.246;2024-02-14T00:56:32;8.40;57.90
4097;DHT22;2062;50.694;7.246;2024-02-14T00:58:59;8.40;57.90
4097;DHT22;2062;50.694;7.246;2024-02-14T01:01:27;8.40;57.90
4097;DHT22;2062;50.694;7.246;2024-02-14T01:03:54;8.40;58.00
4097;DHT22;2062;50.694;7.246;2024-02-14T01:06:21;8.40;58.00
4097;DHT22;2062;50.694;7.246;2024-02-14T01:08:48;8.40;58.00
4097;DHT22;2062;50.694;7.246;2024-02-14T01:11:15;8.40;58.10
4097;DHT22;2062;50.694;7.246;2024-02-14T01:13:41;8.40;58.10
4097;DHT22;2062;50.694;7.246;2024-02-14T01:16:08;8.40;58.00
4097;DHT22;2062;50.694;7.246;2024-02-14T01:18:37;8.40;58.00
4097;DHT22;2062;50.694;7.246;2024-02-14T01:21:04;8.50;58.10
4097;DHT22;2062;50.694;7.246;2024-02-14T01:23:31;8.50;58.10
4097;DHT22;2062;50.694;7.246;2024-02-14T01:25:58;8.50;58.10
4097;DHT22;2062;50.694;7.246;2024-02-14T01:28:24;8.50;58.10
4097;DHT22;2062;50.694;7.246;2024-02-14T01:30:52;8.50;58.20
4097;DHT22;2062;50.694;7.246;2024-02-14T01:33:18;8.50;58.30
4097;DHT22;2062;50.694;7.246;2024-02-14T01:35:47;8.50;58.30
4097;DHT22;2062;50.694;7.246;2024-02-14T01:38:14;8.50;58.40
4097;DHT22;2062;50.694;7.246;2024-02-14T01:40:42;8.50;58.50
4097;DHT22;2062;50.694;7.246;2024-02-14T01:43:10;8.50;59.00
4097;DHT22;2062;50.694;7.246;2024-02-14T01:45:37;8.60;58.40
4097;DHT22;2062;50.694;7.246;2024-02-14T01:48:05;8.60;58.40
4097;DHT22;2062;50.694;7.246;2024-02-14T01:50:33;8.60;58.40
4097;DHT22;2062;50.694;7.246;2024-02-14T01:53:01;8.60;58.40
4097;DHT22;2062;50.694;7.246;2024-02-14T01:55:29;8.60;58.40
4097;DHT22;2062;50.694;7.246;2024-02-14T01:57:55;8.60;58.50
4097;DHT22;2062;50.694;7.246;2024-02-14T02:00:23;8.60;58.50
4097;DHT22;2062;50.694;7.246;2024-02-14T02:02:50;8.60;58.50
4097;DHT22;2062;50.694;7.246;2024-02-14T02:05:17;8.70;58.60
4097;DHT22;2062;50.694;7.246;2024-02-14T02:07:44;8.70;58.80
4097;DHT22;2062;50.694;7.246;2024-02-14T02:10:15;8.60;58.70
4097;DHT22;2062;50.694;7.246;2024-02-14T02:12:42;8.70;58.80
4097;DHT22;2062;50.694;7.246;2024-02-14T02:15:09;8.70;58.80
4097;DHT22;2062;50.694;7.246;2024-02-14T02:17:38;8.70;58.90
4097;DHT22;2062;50.694;7.246;2024-02-14T02:20:05;8.70;58.90
4097;DHT22;2062;50.694;7.246;2024-02-14T02:22:34;8.70;58.80
4097;DHT22;2062;50.694;7.246;2024-02-14T02:25:03;8.70;58.90
4097;DHT22;2062;50.694;7.246;2024-02-14T02:27:32;8.70;58.90
4097;DHT22;2062;50.694;7.246;2024-02-14T02:30:01;8.80;59.00
4097;DHT22;2062;50.694;7.246;2024-02-14T02:32:29;8.80;59.00
4097;DHT22;2062;50.694;7.246;2024-02-14T02:34:56;8.70;59.10
4097;DHT22;2062;50.694;7.246;2024-02-14T02:37:23;8.80;59.00
4097;DHT22;2062;50.694;7.246;2024-02-14T02:39:50;8.80;59.20
4097;DHT22;2062;50.694;7.246;2024-02-14T02:42:19;8.80;59.20
4097;DHT22;2062;50.694;7.246;2024-02-14T02:44:46;8.80;59.20
4097;DHT22;2062;50.694;7.246;2024-02-14T02:47:13;8.80;59.20
4097;DHT22;2062;50.694;7.246;2024-02-14T02:49:42;8.80;59.30
4097;DHT22;2062;50.694;7.246;2024-02-14T02:52:09;8.80;59.20
4097;DHT22;2062;50.694;7.246;2024-02-14T02:54:36;8.80;59.20
4097;DHT22;2062;50.694;7.246;2024-02-14T02:57:06;8.80;59.20
4097;DHT22;2062;50.694;7.246;2024-02-14T02:59:34;8.80;59.20
4097;DHT22;2062;50.694;7.246;2024-02-14T03:02:02;8.80;59.30
4097;DHT22;2062;50.694;7.246;2024-02-14T03:04:28;8.80;59.30
4097;DHT22;2062;50.694;7.246;2024-02-14T03:06:57;8.80;59.30
4097;DHT22;2062;50.694;7.246;2024-02-14T03:09:24;8.80;59.30
4097;DHT22;2062;50.694;7.246;2024-02-14T03:11:53;8.80;59.40
4097;DHT22;2062;50.694;7.246;2024-02-14T03:14:22;8.80;59.40
4097;DHT22;2062;50.694;7.246;2024-02-14T03:16:50;8.80;59.50
4097;DHT22;2062;50.694;7.246;2024-02-14T03:19:17;8.80;59.50
4097;DHT22;2062;50.694;7.246;2024-02-14T03:21:44;8.80;59.50
4097;DHT22;2062;50.694;7.246;2024-02-14T03:24:12;8.80;59.60
4097;DHT22;2062;50.694;7.246;2024-02-14T03:26:39;8.90;59.60
4097;DHT22;2062;50.694;7.246;2024-02-14T03:29:07;8.80;59.60
4097;DHT22;2062;50.694;7.246;2024-02-14T03:31:34;8.90;59.60
4097;DHT22;2062;50.694;7.246;2024-02-14T03:34:03;8.90;59.60
4097;DHT22;2062;50.694;7.246;2024-02-14T03:36:30;8.90;59.70
4097;DHT22;2062;50.694;7.246;2024-02-14T03:38:58;8.80;59.60
4097;DHT22;2062;50.694;7.246;2024-02-14T03:41:26;8.90;59.70
4097;DHT22;2062;50.694;7.246;2024-02-14T03:43:53;8.90;60.00
4097;DHT22;2062;50.694;7.246;2024-02-14T03:46:23;8.80;59.80
4097;DHT22;2062;50.694;7.246;2024-02-14T03:48:50;8.90;60.00
4097;DHT22;2062;50.694;7.246;2024-02-14T03:51:18;8.90;59.80
4097;DHT22;2062;50.694;7.246;2024-02-14T03:53:45;8.90;59.80
4097;DHT22;2062;50.694;7.246;2024-02-14T03:56:12;8.90;59.90
4097;DHT22;2062;50.694;7.246;2024-02-14T03:58:40;8.90;60.00
4097;DHT22;2062;50.694;7.246;2024-02-14T04:01:06;8.90;59.90
4097;DHT22;2062;50.694;7.246;2024-02-14T04:03:34;8.90;60.00
4097;DHT22;2062;50.694;7.246;2024-02-14T04:06:01;8.90;60.00
4097;DHT22;2062;50.694;7.246;2024-02-14T04:08:29;8.90;60.00
4097;DHT22;2062;50.694;7.246;2024-02-14T04:10:56;8.90;60.00
4097;DHT22;2062;50.694;7.246;2024-02-14T04:13:23;8.90;60.00
4097;DHT22;2062;50.694;7.246;2024-02-14T04:15:49;8.90;60.10
4097;DHT22;2062;50.694;7.246;2024-02-14T04:18:16;8.90;60.20
4097;DHT22;2062;50.694;7.246;2024-02-14T04:20:44;8.90;60.20
4097;DHT22;2062;50.694;7.246;2024-02-14T04:23:10;8.90;60.70
4097;DHT22;2062;50.694;7.246;2024-02-14T04:25:38;8.90;60.30
4097;DHT22;2062;50.694;7.246;2024-02-14T04:28:06;8.90;60.50
4097;DHT22;2062;50.694;7.246;2024-02-14T04:30:32;8.90;60.40
4097;DHT22;2062;50.694;7.246;2024-02-14T04:33:01;8.90;60.70
4097;DHT22;2062;50.694;7.246;2024-02-14T04:35:28;8.90;60.50
4097;DHT22;2062;50.694;7.246;2024-02-14T04:37:55;8.90;60.70
4097;DHT22;2062;50.694;7.246;2024-02-14T04:40:22;8.90;60.60
4097;DHT22;2062;50.694;7.246;2024-02-14T04:42:50;8.90;60.60
4097;DHT22;2062;50.694;7.246;2024-02-14T04:45:17;8.90;60.70
4097;DHT22;2062;50.694;7.246;2024-02-14T04:47:44;8.90;60.80
4097;DHT22;2062;50.694;7.246;2024-02-14T04:50:11;8.90;60.80
4097;DHT22;2062;50.694;7.246;2024-02-14T04:52:39;8.90;60.90
4097;DHT22;2062;50.694;7.246;2024-02-14T04:55:07;8.90;60.80
4097;DHT22;2062;50.694;7.246;2024-02-14T04:57:34;8.90;60.80
4097;DHT22;2062;50.694;7.246;2024-02-14T05:00:05;8.90;61.00
4097;DHT22;2062;50.694;7.246;2024-02-14T05:02:34;8.90;60.90
4097;DHT22;2062;50.694;7.246;2024-02-14T05:05:01;8.90;61.00
4097;DHT22;2062;50.694;7.246;2024-02-14T05:07:28;9.00;61.00
4097;DHT22;2062;50.694;7.246;2024-02-14T05:09:55;8.90;61.00
4097;DHT22;2062;50.694;7.246;2024-02-14T05:12:22;9.00;61.00
4097;DHT22;2062;50.694;7.246;2024-02-14T05:14:48;9.00;61.30
4097;DHT22;2062;50.694;7.246;2024-02-14T05:17:17;9.00;61.40
4097;DHT22;2062;50.694;7.246;2024-02-14T05:19:43;9.00;61.30
4097;DHT22;2062;50.694;7.246;2024-02-14T05:22:10;9.00;61.70
4097;DHT22;2062;50.694;7.246;2024-02-14T05:24:37;9.00;61.70
4097;DHT22;2062;50.694;7.246;2024-02-14T05:27:04;9.00;61.60
4097;DHT22;2062;50.694;7.246;2024-02-14T05:29:31;9.00;61.80
4097;DHT22;2062;50.694;7.246;2024-02-14T05:31:58;9.00;61.80
4097;DHT22;2062;50.694;7.246;2024-02-14T05:34:26;9.10;61.90
4097;DHT22;2062;50.694;7.246;2024-02-14T05:36:53;9.00;61.90
4097;DHT22;2062;50.694;7.246;2024-02-14T05:39:20;9.00;62.00
4097;DHT22;2062;50.694;7.246;2024-02-14T05:41:47;9.00;62.10
4097;DHT22;2062;50.694;7.246;2024-02-14T05:44:15;9.00;62.20
4097;DHT22;2062;50.694;7.246;2024-02-14T05:46:42;9.10;62.20
4097;DHT22;2062;50.694;7.246;2024-02-14T05:49:08;9.10;62.20
4097;DHT22;2062;50.694;7.246;2024-02-14T05:51:37;9.10;62.30
4097;DHT22;2062;50.694;7.246;2024-02-14T05:54:03;9.10;62.20
4097;DHT22;2062;50.694;7.246;2024-02-14T05:56:30;9.10;62.40
4097;DHT22;2062;50.694;7.246;2024-02-14T05:58:57;9.10;62.30
4097;DHT22;2062;50.694;7.246;2024-02-14T06:01:24;9.10;62.40
4097;DHT22;2062;50.694;7.246;2024-02-14T06:03:50;9.20;62.60
4097;DHT22;2062;50.694;7.246;2024-02-14T06:06:17;9.10;62.40
4097;DHT22;2062;50.694;7.246;2024-02-14T06:08:45;9.10;62.20
4097;DHT22;2062;50.694;7.246;2024-02-14T06:11:13;9.20;62.50
4097;DHT22;2062;50.694;7.246;2024-02-14T06:13:39;9.20;62.50
4097;DHT22;2062;50.694;7.246;2024-02-14T06:16:06;9.10;62.50
4097;DHT22;2062;50.694;7.246;2024-02-14T06:18:34;9.20;62.50
4097;DHT22;2062;50.694;7.246;2024-02-14T06:21:01;9.10;62.60
4097;DHT22;2062;50.694;7.246;2024-02-14T06:23:27;9.10;62.70
4097;DHT22;2062;50.694;7.246;2024-02-14T06:25:56;9.20;62.60
4097;DHT22;2062;50.694;7.246;2024-02-14T06:28:22;9.20;62.80
4097;DHT22;2062;50.694;7.246;2024-02-14T06:30:49;9.20;62.80
4097;DHT22;2062;50.694;7.246;2024-02-14T06:33:16;9.20;63.50
4097;DHT22;2062;50.694;7.246;2024-02-14T06:35:43;9.20;62.70
4097;DHT22;2062;50.694;7.246;2024-02-14T06:38:10;9.20;62.60
4097;DHT22;2062;50.694;7.246;2024-02-14T06:40:37;9.20;62.60
4097;DHT22;2062;50.694;7.246;2024-02-14T06:43:05;9.20;62.60
4097;DHT22;2062;50.694;7.246;2024-02-14T06:45:32;9.20;62.60
4097;DHT22;2062;50.694;7.246;2024-02-14T06:47:59;9.20;62.60
4097;DHT22;2062;50.694;7.246;2024-02-14T06:50:25;9.20;62.60
4097;DHT22;2062;50.694;7.246;2024-02-14T06:52:54;9.20;62.60
4097;DHT22;2062;50.694;7.246;2024-02-14T06:55:23;9.20;62.60
4097;DHT22;2062;50.694;7.246;2024-02-14T06:57:50;9.20;62.60
4097;DHT22;2062;50.694;7.246;2024-02-14T07:00:19;9.20;62.70
4097;DHT22;2062;50.694;7.246;2024-02-14T07:02:46;9.20;62.70
4097;DHT22;2062;50.694;7.246;2024-02-14T07:05:13;9.30;62.80
4097;DHT22;2062;50.694;7.246;2024-02-14T07:07:40;9.30;63.00
4097;DHT22;2062;50.694;7.246;2024-02-14T07:10:08;9.20;62.80
4097;DHT22;2062;50.694;7.246;2024-02-14T07:12:35;9.30;63.00
4097;DHT22;2062;50.694;7.246;2024-02-14T07:15:02;9.30;63.10
4097;DHT22;2062;50.694;7.246;2024-02-14T07:17:31;9.20;63.00
4097;DHT22;2062;50.694;7.246;2024-02-14T07:19:58;9.30;63.00
4097;DHT22;2062;50.694;7.246;2024-02-14T07:22:24;9.30;63.20
4097;DHT22;2062;50.694;7.246;2024-02-14T07:24:51;9.30;63.00
4097;DHT22;2062;50.694;7.246;2024-02-14T07:27:19;9.30;63.10
4097;DHT22;2062;50.694;7.246;2024-02-14T07:29:46;9.30;63.10
4097;DHT22;2062;50.694;7.246;2024-02-14T07:32:13;9.30;63.00
4097;DHT22;2062;50.694;7.246;2024-02-14T07:34:41;9.40;63.00
4097;DHT22;2062;50.694;7.246;2024-02-14T07:37:09;9.40;62.90
4097;DHT22;2062;50.694;7.246;2024-02-14T07:39:35;9.40;63.00
4097;DHT22;2062;50.694;7.246;2024-02-14T07:42:03;9.40;62.80
4097;DHT22;2062;50.694;7.246;2024-02-14T07:44:30;9.40;62.90
4097;DHT22;2062;50.694;7.246;2024-02-14T07:46:57;9.50;63.20
4097;DHT22;2062;50.694;7.246;2024-02-14T07:49:24;9.50;63.20
4097;DHT22;2062;50.694;7.246;2024-02-14T07:51:52;9.50;63.30
4097;DHT22;2062;50.694;7.246;2024-02-14T07:54:19;9.50;63.10
4097;DHT22;2062;50.694;7.246;2024-02-14T07:56:45;9.40;63.10
4097;DHT22;2062;50.694;7.246;2024-02-14T07:59:12;9.50;63.30
4097;DHT22;2062;50.694;7.246;2024-02-14T08:01:39;9.50;63.60
4097;DHT22;2062;50.694;7.246;2024-02-14T08:04:06;9.60;63.60
4097;DHT22;2062;50.694;7.246;2024-02-14T08:06:32;9.60;63.70
4097;DHT22;2062;50.694;7.246;2024-02-14T08:09:01;9.60;63.40
4097;DHT22;2062;50.694;7.246;2024-02-14T08:11:31;9.70;63.50
4097;DHT22;2062;50.694;7.246;2024-02-14T08:13:58;9.70;63.60
4097;DHT22;2062;50.694;7.246;2024-02-14T08:16:25;9.80;63.50
4097;DHT22;2062;50.694;7.246;2024-02-14T08:18:52;9.80;63.50
4097;DHT22;2062;50.694;7.246;2024-02-14T08:21:24;9.90;63.80
4097;DHT22;2062;50.694;7.246;2024-02-14T08:23:51;9.90;63.80
4097;DHT22;2062;50.694;7.246;2024-02-14T08:26:19;10.00;63.60
4097;DHT22;2062;50.694;7.246;2024-02-14T08:28:45;10.10;63.70
4097;DHT22;2062;50.694;7.246;2024-02-14T08:31:12;10.10;63.70
4097;DHT22;2062;50.694;7.246;2024-02-14T08:33:39;10.10;63.60
4097;DHT22;2062;50.694;7.246;2024-02-14T08:36:07;10.10;63.50
4097;DHT22;2062;50.694;7.246;2024-02-14T08:38:34;10.20;63.40
4097;DHT22;2062;50.694;7.246;2024-02-14T08:41:00;10.20;63.40
4097;DHT22;2062;50.694;7.246;2024-02-14T08:43:29;10.20;63.30
4097;DHT22;2062;50.694;7.246;2024-02-14T08:45:56;10.20;63.30
4097;DHT22;2062;50.694;7.246;2024-02-14T08:48:23;10.20;63.20
4097;DHT22;2062;50.694;7.246;2024-02-14T08:50:53;10.30;63.40
4097;DHT22;2062;50.694;7.246;2024-02-14T08:53:20;10.30;63.40
4097;DHT22;2062;50.694;7.246;2024-02-14T08:55:47;10.30;63.40
4097;DHT22;2062;50.694;7.246;2024-02-14T08:58:14;10.40;63.30
4097;DHT22;2062;50.694;7.246;2024-02-14T09:00:42;10.40;63.50
4097;DHT22;2062;50.694;7.246;2024-02-14T09:03:09;10.40;63.50
4097;DHT22;2062;50.694;7.246;2024-02-14T09:05:35;10.50;63.50
4097;DHT22;2062;50.694;7.246;2024-02-14T09:08:04;10.50;63.50
4097;DHT22;2062;50.694;7.246;2024-02-14T09:10:31;10.50;63.50
4097;DHT22;2062;50.694;7.246;2024-02-14T09:12:58;10.60;63.40
4097;DHT22;2062;50.694;7.246;2024-02-14T09:15:24;10.60;63.30
4097;DHT22;2062;50.694;7.246;2024-02-14T09:17:53;10.60;63.40
4097;DHT22;2062;50.694;7.246;2024-02-14T09:20:20;10.70;63.60
4097;DHT22;2062;50.694;7.246;2024-02-14T09:22:47;10.80;63.60
4097;DHT22;2062;50.694;7.246;2024-02-14T09:25:14;10.80;63.70
4097;DHT22;2062;50.694;7.246;2024-02-14T09:27:41;10.90;63.80
4097;DHT22;2062;50.694;7.246;2024-02-14T09:30:09;10.90;63.60
4097;DHT22;2062;50.694;7.246;2024-02-14T09:32:37;11.00;63.80
4097;DHT22;2062;50.694;7.246;2024-02-14T09:35:05;11.10;64.00
4097;DHT22;2062;50.694;7.246;2024-02-14T09:37:33;11.20;64.30
4097;DHT22;2062;50.694;7.246;2024-02-14T09:39:59;11.30;64.10
4097;DHT22;2062;50.694;7.246;2024-02-14T09:42:37;11.50;64.40
4097;DHT22;2062;50.694;7.246;2024-02-14T09:45:06;11.60;64.30
4097;DHT22;2062;50.694;7.246;2024-02-14T09:47:33;11.80;64.30
4097;DHT22;2062;50.694;7.246;2024-02-14T09:50:02;11.90;64.40
4097;DHT22;2062;50.694;7.246;2024-02-14T09:52:33;12.00;64.10
4097;DHT22;2062;50.694;7.246;2024-02-14T09:55:01;12.10;64.00
4097;DHT22;2062;50.694;7.246;2024-02-14T09:57:29;12.20;63.90
4097;DHT22;2062;50.694;7.246;2024-02-14T09:59:56;12.40;63.50
4097;DHT22;2062;50.694;7.246;2024-02-14T10:02:23;12.40;63.40
4097;DHT22;2062;50.694;7.246;2024-02-14T10:08:34;12.50;62.80
4097;DHT22;2062;50.694;7.246;2024-02-14T10:11:02;12.60;62.80
4097;DHT22;2062;50.694;7.246;2024-02-14T10:13:29;12.70;62.70
4097;DHT22;2062;50.694;7.246;2024-02-14T10:15:57;12.70;62.00
4097;DHT22;2062;50.694;7.246;2024-02-14T10:18:23;12.70;62.40
4097;DHT22;2062;50.694;7.246;2024-02-14T10:20:55;12.80;61.90
4097;DHT22;2062;50.694;7.246;2024-02-14T10:23:22;12.80;62.40
4097;DHT22;2062;50.694;7.246;2024-02-14T10:25:53;12.80;61.50
4097;DHT22;2062;50.694;7.246;2024-02-14T10:28:21;12.90;62.10
4097;DHT22;2062;50.694;7.246;2024-02-14T10:30:49;12.90;61.80
4097;DHT22;2062;50.694;7.246;2024-02-14T10:33:16;12.90;61.70
4097;DHT22;2062;50.694;7.246;2024-02-14T10:35:43;13.00;61.80
4097;DHT22;2062;50.694;7.246;2024-02-14T10:38:11;13.00;61.10
4097;DHT22;2062;50.694;7.246;2024-02-14T10:40:38;13.00;61.20
4097;DHT22;2062;50.694;7.246;2024-02-14T10:43:07;13.00;61.20
4097;DHT22;2062;50.694;7.246;2024-02-14T10:45:35;13.00;61.10
4097;DHT22;2062;50.694;7.246;2024-02-14T10:48:04;13.00;60.40
4097;DHT22;2062;50.694;7.246;2024-02-14T10:50:33;13.00;60.60
4097;DHT22;2062;50.694;7.246;2024-02-14T10:53:04;13.00;60.60
4097;DHT22;2062;50.694;7.246;2024-02-14T10:55:33;13.00;60.30
4097;DHT22;2062;50.694;7.246;2024-02-14T10:58:00;13.10;60.30
4097;DHT22;2062;50.694;7.246;2024-02-14T11:00:29;13.00;60.10
4097;DHT22;2062;50.694;7.246;2024-02-14T11:02:58;12.90;59.60
4097;DHT22;2062;50.694;7.246;2024-02-14T11:05:26;12.90;59.80
4097;DHT22;2062;50.694;7.246;2024-02-14T11:07:52;12.90;59.10
4097;DHT22;2062;50.694;7.246;2024-02-14T11:10:20;12.90;59.50
4097;DHT22;2062;50.694;7.246;2024-02-14T11:12:48;12.80;59.20
4097;DHT22;2062;50.694;7.246;2024-02-14T11:15:17;12.80;59.60
4097;DHT22;2062;50.694;7.246;2024-02-14T11:17:45;12.80;59.70
4097;DHT22;2062;50.694;7.246;2024-02-14T11:20:16;12.80;59.40
4097;DHT22;2062;50.694;7.246;2024-02-14T11:22:53;12.80;59.50
4097;DHT22;2062;50.694;7.246;2024-02-14T11:25:29;12.80;59.40
4097;DHT22;2062;50.694;7.246;2024-02-14T11:28:00;12.70;59.60
4097;DHT22;2062;50.694;7.246;2024-02-14T11:30:31;12.80;59.70
4097;DHT22;2062;50.694;7.246;2024-02-14T11:33:18;12.70;59.80
4097;DHT22;2062;50.694;7.246;2024-02-14T11:35:47;12.70;59.90
4097;DHT22;2062;50.694;7.246;2024-02-14T11:38:15;12.70;60.00
4097;DHT22;2062;50.694;7.246;2024-02-14T11:40:42;12.80;59.80
4097;DHT22;2062;50.694;7.246;2024-02-14T11:43:13;12.70;59.90
4097;DHT22;2062;50.694;7.246;2024-02-14T11:45:41;12.70;59.90
4097;DHT22;2062;50.694;7.246;2024-02-14T11:48:09;12.70;59.90
4097;DHT22;2062;50.694;7.246;2024-02-14T11:50:38;12.70;59.90
4097;DHT22;2062;50.694;7.246;2024-02-14T11:53:06;12.70;60.70
4097;DHT22;2062;50.694;7.246;2024-02-14T11:55:36;12.70;59.90
4097;DHT22;2062;50.694;7.246;2024-02-14T11:58:06;12.80;59.80
4097;DHT22;2062;50.694;7.246;2024-02-14T12:00:33;12.70;60.00
4097;DHT22;2062;50.694;7.246;2024-02-14T12:03:01;12.70;60.10
4097;DHT22;2062;50.694;7.246;2024-02-14T12:05:28;12.70;60.00
4097;DHT22;2062;50.694;7.246;2024-02-14T12:07:56;12.70;60.10
4097;DHT22;2062;50.694;7.246;2024-02-14T12:10:23;12.70;60.10
4097;DHT22;2062;50.694;7.246;2024-02-14T12:12:50;12.70;59.90
4097;DHT22;2062;50.694;7.246;2024-02-14T12:15:17;12.70;60.10
4097;DHT22;2062;50.694;7.246;2024-02-14T12:17:45;12.70;60.10
4097;DHT22;2062;50.694;7.246;2024-02-14T12:20:14;12.70;60.20
4097;DHT22;2062;50.694;7.246;2024-02-14T12:22:41;12.80;60.10
4097;DHT22;2062;50.694;7.246;2024-02-14T12:25:10;12.80;60.00
4097;DHT22;2062;50.694;7.246;2024-02-14T12:27:37;12.80;60.10
4097;DHT22;2062;50.694;7.246;2024-02-14T12:30:05;12.80;60.10
4097;DHT22;2062;50.694;7.246;2024-02-14T12:32:33;12.80;60.10
4097;DHT22;2062;50.694;7.246;2024-02-14T12:35:00;12.80;60.10
4097;DHT22;2062;50.694;7.246;2024-02-14T12:37:26;12.80;59.80
4097;DHT22;2062;50.694;7.246;2024-02-14T12:39:53;12.80;59.90
4097;DHT22;2062;50.694;7.246;2024-02-14T12:42:22;12.80;59.90
4097;DHT22;2062;50.694;7.246;2024-02-14T12:44:51;12.80;59.80
4097;DHT22;2062;50.694;7.246;2024-02-14T12:47:19;12.80;59.90
4097;DHT22;2062;50.694;7.246;2024-02-14T12:49:46;12.80;60.00
4097;DHT22;2062;50.694;7.246;2024-02-14T12:52:13;12.80;59.90
4097;DHT22;2062;50.694;7.246;2024-02-14T12:54:40;12.80;60.00
4097;DHT22;2062;50.694;7.246;2024-02-14T12:57:07;12.80;60.10
4097;DHT22;2062;50.694;7.246;2024-02-14T12:59:35;12.80;60.00
4097;DHT22;2062;50.694;7.246;2024-02-14T13:02:02;12.80;60.30
4097;DHT22;2062;50.694;7.246;2024-02-14T13:04:32;12.80;61.10
4097;DHT22;2062;50.694;7.246;2024-02-14T13:06:58;12.90;60.30
4097;DHT22;2062;50.694;7.246;2024-02-14T13:09:26;12.80;60.20
4097;DHT22;2062;50.694;7.246;2024-02-14T13:11:53;12.80;60.20
4097;DHT22;2062;50.694;7.246;2024-02-14T13:14:20;12.90;60.30
4097;DHT22;2062;50.694;7.246;2024-02-14T13:16:48;12.90;60.40
4097;DHT22;2062;50.694;7.246;2024-02-14T13:19:15;12.90;60.30
4097;DHT22;2062;50.694;7.246;2024-02-14T13:21:41;12.90;60.40
4097;DHT22;2062;50.694;7.246;2024-02-14T13:24:11;12.90;60.40
4097;DHT22;2062;50.694;7.246;2024-02-14T13:26:39;12.90;60.40
4097;DHT22;2062;50.694;7.246;2024-02-14T13:29:06;12.90;60.60
4097;DHT22;2062;50.694;7.246;2024-02-14T13:31:33;12.90;60.60
4097;DHT22;2062;50.694;7.246;2024-02-14T13:34:01;12.90;60.70
4097;DHT22;2062;50.694;7.246;2024-02-14T13:36:29;12.80;60.50
4097;DHT22;2062;50.694;7.246;2024-02-14T13:38:56;12.80;60.60
4097;DHT22;2062;50.694;7.246;2024-02-14T13:41:23;12.80;60.70
4097;DHT22;2062;50.694;7.246;2024-02-14T13:43:49;12.80;60.80
4097;DHT22;2062;50.694;7.246;2024-02-14T13:46:16;12.80;60.90
4097;DHT22;2062;50.694;7.246;2024-02-14T13:48:44;12.80;61.00
4097;DHT22;2062;50.694;7.246;2024-02-14T13:51:12;12.80;61.10
4097;DHT22;2062;50.694;7.246;2024-02-14T13:53:38;12.70;61.20
4097;DHT22;2062;50.694;7.246;2024-02-14T13:56:06;12.70;61.30
4097;DHT22;2062;50.694;7.246;2024-02-14T13:58:33;12.70;61.40
4097;DHT22;2062;50.694;7.246;2024-02-14T14:00:59;12.70;61.70
4097;DHT22;2062;50.694;7.246;2024-02-14T14:03:26;12.60;61.50
4097;DHT22;2062;50.694;7.246;2024-02-14T14:05:55;12.60;61.60
4097;DHT22;2062;50.694;7.246;2024-02-14T14:08:23;12.50;61.80
4097;DHT22;2062;50.694;7.246;2024-02-14T14:10:50;12.50;62.00
4097;DHT22;2062;50.694;7.246;2024-02-14T14:13:17;12.50;62.20
4097;DHT22;2062;50.694;7.246;2024-02-14T14:15:43;12.50;62.70
4097;DHT22;2062;50.694;7.246;2024-02-14T14:18:10;12.40;62.30
4097;DHT22;2062;50.694;7.246;2024-02-14T14:20:37;12.50;62.70
4097;DHT22;2062;50.694;7.246;2024-02-14T14:23:04;12.40;62.60
4097;DHT22;2062;50.694;7.246;2024-02-14T14:25:33;12.30;62.90
4097;DHT22;2062;50.694;7.246;2024-02-14T14:27:59;12.30;62.70
4097;DHT22;2062;50.694;7.246;2024-02-14T14:30:27;12.30;62.80
4097;DHT22;2062;50.694;7.246;2024-02-14T14:32:54;12.20;62.80
4097;DHT22;2062;50.694;7.246;2024-02-14T14:35:21;12.20;63.00
4097;DHT22;2062;50.694;7.246;2024-02-14T14:37:48;12.20;63.10
4097;DHT22;2062;50.694;7.246;2024-02-14T14:40:15;12.20;63.30
4097;DHT22;2062;50.694;7.246;2024-02-14T14:42:43;12.20;63.50
4097;DHT22;2062;50.694;7.246;2024-02-14T14:45:10;12.20;63.50
4097;DHT22;2062;50.694;7.246;2024-02-14T14:47:36;12.10;63.50
4097;DHT22;2062;50.694;7.246;2024-02-14T14:50:04;12.10;63.50
4097;DHT22;2062;50.694;7.246;2024-02-14T14:52:31;12.10;63.70
4097;DHT22;2062;50.694;7.246;2024-02-14T14:54:58;12.10;63.50
4097;DHT22;2062;50.694;7.246;2024-02-14T14:57:25;12.10;63.90
4097;DHT22;2062;50.694;7.246;2024-02-14T14:59:54;12.10;63.90
4097;DHT22;2062;50.694;7.246;2024-02-14T15:02:21;12.10;64.10
4097;DHT22;2062;50.694;7.246;2024-02-14T15:04:48;12.10;64.10
4097;DHT22;2062;50.694;7.246;2024-02-14T15:07:16;12.10;64.10
4097;DHT22;2062;50.694;7.246;2024-02-14T15:09:45;12.00;64.40
4097;DHT22;2062;50.694;7.246;2024-02-14T15:12:12;12.00;64.60
4097;DHT22;2062;50.694;7.246;2024-02-14T15:14:39;12.00;64.50
4097;DHT22;2062;50.694;7.246;2024-02-14T15:17:07;12.00;64.50
4097;DHT22;2062;50.694;7.246;2024-02-14T15:19:34;12.00;64.80
4097;DHT22;2062;50.694;7.246;2024-02-14T15:22:00;12.00;64.80
4097;DHT22;2062;50.694;7.246;2024-02-14T15:24:28;12.00;64.60
4097;DHT22;2062;50.694;7.246;2024-02-14T15:26:55;12.00;64.90
4097;DHT22;2062;50.694;7.246;2024-02-14T15:29:26;12.00;64.90
4097;DHT22;2062;50.694;7.246;2024-02-14T15:32:11;12.00;65.00
4097;DHT22;2062;50.694;7.246;2024-02-14T15:34:56;11.90;65.10
4097;DHT22;2062;50.694;7.246;2024-02-14T15:37:22;11.90;65.00
4097;DHT22;2062;50.694;7.246;2024-02-14T15:39:49;11.90;65.20
4097;DHT22;2062;50.694;7.246;2024-02-14T15:42:17;11.90;65.30
4097;DHT22;2062;50.694;7.246;2024-02-14T15:44:44;11.90;65.00
4097;DHT22;2062;50.694;7.246;2024-02-14T15:47:12;11.90;65.40
4097;DHT22;2062;50.694;7.246;2024-02-14T15:49:40;11.90;65.40
4097;DHT22;2062;50.694;7.246;2024-02-14T15:52:06;11.90;65.50
4097;DHT22;2062;50.694;7.246;2024-02-14T15:54:33;11.80;65.30
4097;DHT22;2062;50.694;7.246;2024-02-14T15:57:00;11.90;65.80
4097;DHT22;2062;50.694;7.246;2024-02-14T15:59:27;11.80;65.70
4097;DHT22;2062;50.694;7.246;2024-02-14T16:01:55;11.90;65.70
4097;DHT22;2062;50.694;7.246;2024-02-14T16:04:23;11.80;65.90
4097;DHT22;2062;50.694;7.246;2024-02-14T16:06:50;11.80;66.00
4097;DHT22;2062;50.694;7.246;2024-02-14T16:09:17;11.80;66.00
4097;DHT22;2062;50.694;7.246;2024-02-14T16:11:44;11.80;66.10
4097;DHT22;2062;50.694;7.246;2024-02-14T16:14:11;11.80;66.10